Time,TemperatureF,DewpointF,PressureIn,WindDirection,WindDirectionDegrees,WindSpeedMPH,WindSpeedGustMPH,Humidity,HourlyPrecipIn,Conditions,Clouds,dailyrainin,SoftwareType,DateUTC
2013-02-15 00:11:00,27.9,25.9,30.46,NE,40,0.0,0.0,92,0.00,,,0.00,Wunderground v.1.15,2013-02-15 08:11:00,
2013-02-15 00:21:00,27.7,25.9,30.45,NE,39,0.0,1.0,93,0.00,,,0.00,Wunderground v.1.15,2013-02-15 08:21:00,
2013-02-15 00:26:00,27.7,25.9,30.45,NE,39,0.0,1.0,93,0.00,,,0.00,Wunderground v.1.15,2013-02-15 08:26:00,
2013-02-15 00:41:00,27.6,25.8,30.46,NE,39,0.0,0.0,93,0.00,,,0.00,Wunderground v.1.15,2013-02-15 08:41:00,
2013-02-15 00:46:00,27.5,25.7,30.46,NE,39,0.0,0.0,93,0.00,,,0.00,Wunderground v.1.15,2013-02-15 08:46:00,
2013-02-15 00:56:00,27.4,25.6,30.46,NE,39,0.0,0.0,93,0.00,,,0.00,Wunderground v.1.15,2013-02-15 08:56:00,
2013-02-15 01:11:00,27.3,25.5,30.45,NE,39,0.0,0.0,93,0.00,,,0.00,Wunderground v.1.15,2013-02-15 09:11:00,
2013-02-15 01:16:00,27.3,25.5,30.45,NE,39,0.0,0.0,93,0.00,,,0.00,Wunderground v.1.15,2013-02-15 09:16:00,
2013-02-15 01:26:00,27.2,25.7,30.45,NE,39,0.0,0.0,94,0.00,,,0.00,Wunderground v.1.15,2013-02-15 09:26:00,
2013-02-15 01:36:00,27.2,25.7,30.45,NE,39,0.0,0.0,94,0.00,,,0.00,Wunderground v.1.15,2013-02-15 09:36:00,
2013-02-15 01:46:00,27.0,25.2,30.45,NE,39,0.0,0.0,93,0.00,,,0.00,Wunderground v.1.15,2013-02-15 09:46:00,
2013-02-15 02:01:00,26.8,25.0,30.45,NE,39,0.0,0.0,93,0.00,,,0.00,Wunderground v.1.15,2013-02-15 10:01:00,
2013-02-15 02:11:00,26.7,25.2,30.45,NE,39,0.0,0.0,94,0.00,,,0.00,Wunderground v.1.15,2013-02-15 10:11:00,
2013-02-15 02:16:00,26.7,25.2,30.45,NE,39,0.0,0.0,94,0.00,,,0.00,Wunderground v.1.15,2013-02-15 10:16:00,
2013-02-15 02:26:00,26.6,25.1,30.45,NE,39,0.0,0.0,94,0.00,,,0.00,Wunderground v.1.15,2013-02-15 10:26:00,
2013-02-15 02:36:00,26.6,25.1,30.44,NE,39,0.0,0.0,94,0.00,,,0.00,Wunderground v.1.15,2013-02-15 10:36:00,
2013-02-15 02:46:00,26.5,25.0,30.44,NE,39,0.0,0.0,94,0.00,,,0.00,Wunderground v.1.15,2013-02-15 10:46:00,
2013-02-15 02:56:00,26.4,24.9,30.44,NE,39,0.0,0.0,94,0.00,,,0.00,Wunderground v.1.15,2013-02-15 10:56:00,
2013-02-15 03:11:00,26.2,24.7,30.44,NE,39,0.0,0.0,94,0.00,,,0.00,Wunderground v.1.15,2013-02-15 11:11:00,
2013-02-15 03:16:00,26.1,24.6,30.44,NE,39,0.0,0.0,94,0.00,,,0.00,Wunderground v.1.15,2013-02-15 11:16:00,
2013-02-15 03:26:00,26.0,24.3,30.44,NE,39,0.0,0.0,93,0.00,,,0.00,Wunderground v.1.15,2013-02-15 11:26:00,
2013-02-15 03:41:00,25.8,24.1,30.44,NE,39,0.0,0.0,93,0.00,,,0.00,Wunderground v.1.15,2013-02-15 11:41:00,
2013-02-15 03:46:00,25.8,24.1,30.44,NE,39,0.0,0.0,93,0.00,,,0.00,Wunderground v.1.15,2013-02-15 11:46:00,
2013-02-15 03:56:00,25.7,24.2,30.44,NE,39,0.0,0.0,94,0.00,,,0.00,Wunderground v.1.15,2013-02-15 11:56:00,
2013-02-15 04:11:00,25.5,23.8,30.43,NE,39,0.0,0.0,93,0.00,,,0.00,Wunderground v.1.15,2013-02-15 12:11:00,
2013-02-15 04:16:00,25.4,23.9,30.43,NE,39,0.0,0.0,94,0.00,,,0.00,Wunderground v.1.15,2013-02-15 12:16:00,
2013-02-15 04:26:00,25.4,23.7,30.43,NE,39,0.0,0.0,93,0.00,,,0.00,Wunderground v.1.15,2013-02-15 12:26:00,
2013-02-15 04:36:00,25.3,23.8,30.42,NE,39,0.0,0.0,94,0.00,,,0.00,Wunderground v.1.15,2013-02-15 12:36:00,
2013-02-15 04:51:00,25.2,23.5,30.42,NE,39,0.0,0.0,93,0.00,,,0.00,Wunderground v.1.15,2013-02-15 12:51:00,
2013-02-15 04:56:00,25.1,23.4,30.42,NE,39,0.0,0.0,93,0.00,,,0.00,Wunderground v.1.15,2013-02-15 12:56:00,
2013-02-15 05:11:00,24.9,23.2,30.42,NE,39,0.0,0.0,93,0.00,,,0.00,Wunderground v.1.15,2013-02-15 13:11:00,
2013-02-15 05:16:00,24.8,23.1,30.42,NE,39,0.0,0.0,93,0.00,,,0.00,Wunderground v.1.15,2013-02-15 13:16:00,
2013-02-15 05:26:00,24.7,23.0,30.42,NE,39,0.0,0.0,93,0.00,,,0.00,Wunderground v.1.15,2013-02-15 13:26:00,
2013-02-15 05:36:00,24.6,22.9,30.42,NE,39,0.0,0.0,93,0.00,,,0.00,Wunderground v.1.15,2013-02-15 13:36:00,
2013-02-15 05:51:00,24.5,23.0,30.41,NE,39,0.0,0.0,94,0.00,,,0.00,Wunderground v.1.15,2013-02-15 13:51:00,
2013-02-15 05:56:00,24.4,22.9,30.41,NE,39,0.0,0.0,94,0.00,,,0.00,Wunderground v.1.15,2013-02-15 13:56:00,
2013-02-15 06:11:00,24.4,22.9,30.41,NE,39,0.0,0.0,94,0.00,,,0.00,Wunderground v.1.15,2013-02-15 14:11:00,
2013-02-15 06:21:00,24.5,23.0,30.40,NE,40,0.0,1.0,94,0.00,,,0.00,Wunderground v.1.15,2013-02-15 14:21:00,
2013-02-15 06:26:00,24.6,23.1,30.40,NE,40,1.0,1.0,94,0.00,,,0.00,Wunderground v.1.15,2013-02-15 14:26:00,
2013-02-15 06:36:00,24.7,23.5,30.40,NE,40,1.0,1.0,95,0.00,,,0.00,Wunderground v.1.15,2013-02-15 14:36:00,
2013-02-15 06:46:00,24.8,23.6,30.40,NE,40,0.0,1.0,95,0.00,,,0.00,Wunderground v.1.15,2013-02-15 14:46:00,
2013-02-15 06:56:00,24.7,23.2,30.40,NE,40,1.0,1.0,94,0.00,,,0.00,Wunderground v.1.15,2013-02-15 14:56:00,
2013-02-15 07:11:00,24.4,22.9,30.40,NE,40,0.0,0.0,94,0.00,,,0.00,Wunderground v.1.15,2013-02-15 15:11:00,
2013-02-15 07:21:00,24.3,22.8,30.40,NE,40,1.0,1.0,94,0.00,,,0.00,Wunderground v.1.15,2013-02-15 15:21:00,
2013-02-15 07:31:00,24.4,23.2,30.40,NE,40,1.0,1.0,95,0.00,,,0.00,Wunderground v.1.15,2013-02-15 15:31:00,
2013-02-15 07:36:00,24.6,23.4,30.40,SSE,165,1.0,2.0,95,0.00,,,0.00,Wunderground v.1.15,2013-02-15 15:36:00,
2013-02-15 07:46:00,24.8,23.6,30.40,SSE,163,1.0,2.0,95,0.00,,,0.00,Wunderground v.1.15,2013-02-15 15:46:00,
2013-02-15 07:56:00,25.1,23.9,30.41,SSE,163,2.0,4.0,95,0.00,,,0.00,Wunderground v.1.15,2013-02-15 15:56:00,
2013-02-15 08:11:00,25.5,24.3,30.41,SSE,151,2.0,2.0,95,0.00,,,0.00,Wunderground v.1.15,2013-02-15 16:11:00,
2013-02-15 08:21:00,25.8,24.8,30.41,South,178,2.0,2.0,96,0.00,,,0.00,Wunderground v.1.15,2013-02-15 16:21:00,
2013-02-15 08:26:00,26.0,25.0,30.41,South,173,2.0,2.0,96,0.00,,,0.00,Wunderground v.1.15,2013-02-15 16:26:00,
2013-02-15 08:36:00,26.5,25.5,30.41,South,173,2.0,5.0,96,0.00,,,0.00,Wunderground v.1.15,2013-02-15 16:36:00,
2013-02-15 08:46:00,27.0,26.0,30.41,SSE,166,2.0,2.0,96,0.00,,,0.00,Wunderground v.1.15,2013-02-15 16:46:00,
2013-02-15 08:56:00,27.5,26.5,30.41,SSE,168,1.0,1.0,96,0.00,,,0.00,Wunderground v.1.15,2013-02-15 16:56:00,
2013-02-15 09:11:00,28.2,27.2,30.41,SSE,168,2.0,2.0,96,0.00,,,0.00,Wunderground v.1.15,2013-02-15 17:11:00,
2013-02-15 09:21:00,29.1,28.1,30.40,SSE,168,1.0,1.0,96,0.00,,,0.00,Wunderground v.1.15,2013-02-15 17:21:00,
2013-02-15 09:26:00,29.7,28.7,30.40,SSE,168,2.0,2.0,96,0.00,,,0.00,Wunderground v.1.15,2013-02-15 17:26:00,
2013-02-15 09:41:00,31.5,30.5,30.40,SE,145,2.0,2.0,96,0.00,,,0.00,Wunderground v.1.15,2013-02-15 17:41:00,
2013-02-15 09:46:00,32.6,31.6,30.40,SW,221,2.0,2.0,96,0.00,,,0.00,Wunderground v.1.15,2013-02-15 17:46:00,
2013-02-15 09:56:00,34.6,32.8,30.40,SSE,156,3.0,3.0,93,0.00,,,0.00,Wunderground v.1.15,2013-02-15 17:56:00,
2013-02-15 10:11:00,36.9,33.7,30.39,SSE,156,2.0,4.0,88,0.00,,,0.00,Wunderground v.1.15,2013-02-15 18:11:00,
2013-02-15 10:16:00,37.7,33.6,30.39,SSE,150,3.0,4.0,85,0.00,,,0.00,Wunderground v.1.15,2013-02-15 18:16:00,
2013-02-15 10:26:00,39.3,34.9,30.39,SSE,159,2.0,3.0,84,0.00,,,0.00,Wunderground v.1.15,2013-02-15 18:26:00,
2013-02-15 10:36:00,41.0,35.0,30.38,SSE,159,3.0,4.0,79,0.00,,,0.00,Wunderground v.1.15,2013-02-15 18:36:00,
2013-02-15 10:46:00,42.6,35.6,30.38,SSE,158,2.0,6.0,76,0.00,,,0.00,Wunderground v.1.15,2013-02-15 18:46:00,
2013-02-15 10:56:00,43.9,35.5,30.38,SSE,159,2.0,4.0,72,0.00,,,0.00,Wunderground v.1.15,2013-02-15 18:56:00,
2013-02-15 11:11:00,45.7,36.1,30.37,SSE,165,2.0,2.0,69,0.00,,,0.00,Wunderground v.1.15,2013-02-15 19:11:00,
2013-02-15 11:16:00,46.4,35.7,30.37,SSE,165,2.0,2.0,66,0.00,,,0.00,Wunderground v.1.15,2013-02-15 19:16:00,
2013-02-15 11:26:00,47.2,35.6,30.37,SSE,166,3.0,5.0,64,0.00,,,0.00,Wunderground v.1.15,2013-02-15 19:26:00,
2013-02-15 11:36:00,47.6,35.2,30.36,SSE,166,3.0,3.0,62,0.00,,,0.00,Wunderground v.1.15,2013-02-15 19:36:00,
2013-02-15 11:46:00,48.3,35.5,30.36,SSE,166,2.0,2.0,61,0.00,,,0.00,Wunderground v.1.15,2013-02-15 19:46:00,
2013-02-15 11:56:00,49.0,35.7,30.35,SSE,166,1.0,4.0,60,0.00,,,0.00,Wunderground v.1.15,2013-02-15 19:56:00,
2013-02-15 12:11:00,50.5,35.4,30.34,SSE,166,3.0,3.0,56,0.00,,,0.00,Wunderground v.1.15,2013-02-15 20:11:00,
2013-02-15 12:16:00,50.6,35.5,30.34,SSE,166,3.0,3.0,56,0.00,,,0.00,Wunderground v.1.15,2013-02-15 20:16:00,
2013-02-15 12:26:00,51.6,35.0,30.33,SSE,166,1.0,4.0,53,0.00,,,0.00,Wunderground v.1.15,2013-02-15 20:26:00,
2013-02-15 12:36:00,52.3,34.7,30.32,SSE,166,3.0,6.0,51,0.00,,,0.00,Wunderground v.1.15,2013-02-15 20:36:00,
2013-02-15 12:46:00,52.6,34.5,30.31,SSE,166,2.0,4.0,50,0.00,,,0.00,Wunderground v.1.15,2013-02-15 20:46:00,
2013-02-15 12:56:00,53.1,34.4,30.31,SSE,166,1.0,2.0,49,0.00,,,0.00,Wunderground v.1.15,2013-02-15 20:56:00,
2013-02-15 13:11:00,53.9,33.6,30.29,SSE,167,2.0,4.0,46,0.00,,,0.00,Wunderground v.1.15,2013-02-15 21:11:00,
2013-02-15 13:16:00,54.0,33.1,30.29,SSE,168,3.0,4.0,45,0.00,,,0.00,Wunderground v.1.15,2013-02-15 21:16:00,
2013-02-15 13:31:00,54.0,33.7,30.28,South,171,2.0,2.0,46,0.00,,,0.00,Wunderground v.1.15,2013-02-15 21:31:00,
2013-02-15 13:36:00,54.1,32.6,30.28,South,171,3.0,3.0,44,0.00,,,0.00,Wunderground v.1.15,2013-02-15 21:36:00,
2013-02-15 13:46:00,54.1,32.6,30.27,South,180,2.0,3.0,44,0.00,,,0.00,Wunderground v.1.15,2013-02-15 21:46:00,
2013-02-15 13:56:00,54.3,32.3,30.27,NE,41,3.0,3.0,43,0.00,,,0.00,Wunderground v.1.15,2013-02-15 21:56:00,
2013-02-15 14:11:00,54.6,31.9,30.26,SW,229,2.0,2.0,42,0.00,,,0.00,Wunderground v.1.15,2013-02-15 22:11:00,
2013-02-15 14:16:00,54.7,32.0,30.26,WSW,240,2.0,7.0,42,0.00,,,0.00,Wunderground v.1.15,2013-02-15 22:16:00,
2013-02-15 14:26:00,55.1,31.8,30.26,SSE,168,3.0,3.0,41,0.00,,,0.00,Wunderground v.1.15,2013-02-15 22:26:00,
2013-02-15 14:36:00,55.5,31.5,30.25,SSE,168,2.0,6.0,40,0.00,,,0.00,Wunderground v.1.15,2013-02-15 22:36:00,
2013-02-15 14:46:00,56.2,31.5,30.25,SW,224,2.0,2.0,39,0.00,,,0.00,Wunderground v.1.15,2013-02-15 22:46:00,
2013-02-15 14:56:00,56.8,31.4,30.25,WSW,240,2.0,2.0,38,0.00,,,0.00,Wunderground v.1.15,2013-02-15 22:56:00,
2013-02-15 15:11:00,58.0,31.2,30.24,WSW,239,2.0,3.0,36,0.00,,,0.00,Wunderground v.1.15,2013-02-15 23:11:00,
2013-02-15 15:21:00,58.0,31.2,30.24,SSW,213,2.0,3.0,36,0.00,,,0.00,Wunderground v.1.15,2013-02-15 23:21:00,
2013-02-15 15:26:00,57.9,30.4,30.24,SSW,212,1.0,3.0,35,0.00,,,0.00,Wunderground v.1.15,2013-02-15 23:26:00,
2013-02-15 15:36:00,58.1,29.8,30.24,South,169,2.0,5.0,34,0.00,,,0.00,Wunderground v.1.15,2013-02-15 23:36:00,
2013-02-15 15:51:00,58.6,29.6,30.24,South,169,1.0,1.0,33,0.00,,,0.00,Wunderground v.1.15,2013-02-15 23:51:00,
2013-02-15 15:56:00,58.4,29.4,30.24,South,169,1.0,1.0,33,0.00,,,0.00,Wunderground v.1.15,2013-02-15 23:56:00,
2013-02-15 16:11:00,59.2,30.1,30.23,SW,229,2.0,2.0,33,0.00,,,0.00,Wunderground v.1.15,2013-02-16 00:11:00,
2013-02-15 16:16:00,58.9,29.8,30.23,SW,229,1.0,2.0,33,0.00,,,0.00,Wunderground v.1.15,2013-02-16 00:16:00,
2013-02-15 16:31:00,58.5,30.9,30.22,SW,230,1.0,1.0,35,0.00,,,0.00,Wunderground v.1.15,2013-02-16 00:31:00,
2013-02-15 16:36:00,58.2,29.9,30.22,SW,230,0.0,1.0,34,0.00,,,0.00,Wunderground v.1.15,2013-02-16 00:36:00,
2013-02-15 16:46:00,58.0,30.5,30.22,SW,230,0.0,0.0,35,0.00,,,0.00,Wunderground v.1.15,2013-02-16 00:46:00,
2013-02-15 16:56:00,57.7,30.2,30.22,SW,230,0.0,0.0,35,0.00,,,0.00,Wunderground v.1.15,2013-02-16 00:56:00,
2013-02-15 17:11:00,57.6,30.8,30.22,SW,230,0.0,0.0,36,0.00,,,0.00,Wunderground v.1.15,2013-02-16 01:11:00,
2013-02-15 17:16:00,57.0,31.0,30.21,SW,230,0.0,0.0,37,0.00,,,0.00,Wunderground v.1.15,2013-02-16 01:16:00,
2013-02-15 17:31:00,54.1,31.5,30.21,SW,230,0.0,0.0,42,0.00,,,0.00,Wunderground v.1.15,2013-02-16 01:31:00,
2013-02-15 17:36:00,52.4,30.5,30.21,SW,230,0.0,1.0,43,0.00,,,0.00,Wunderground v.1.15,2013-02-16 01:36:00,
2013-02-15 17:51:00,49.1,30.2,30.22,SW,230,0.0,0.0,48,0.00,,,0.00,Wunderground v.1.15,2013-02-16 01:51:00,
2013-02-15 17:56:00,48.1,29.8,30.22,SW,230,0.0,0.0,49,0.00,,,0.00,Wunderground v.1.15,2013-02-16 01:56:00,
2013-02-15 18:11:00,45.4,29.7,30.22,SW,230,1.0,4.0,54,0.00,,,0.00,Wunderground v.1.15,2013-02-16 02:11:00,
2013-02-15 18:16:00,44.5,30.2,30.22,SW,230,2.0,4.0,57,0.00,,,0.00,Wunderground v.1.15,2013-02-16 02:16:00,
2013-02-15 18:31:00,43.1,30.1,30.22,SW,230,0.0,0.0,60,0.00,,,0.00,Wunderground v.1.15,2013-02-16 02:31:00,
2013-02-15 18:36:00,42.5,30.4,30.22,SW,230,0.0,0.0,62,0.00,,,0.00,Wunderground v.1.15,2013-02-16 02:36:00,
2013-02-15 18:46:00,41.4,30.1,30.23,SW,230,0.0,0.0,64,0.00,,,0.00,Wunderground v.1.15,2013-02-16 02:46:00,
2013-02-15 18:56:00,40.4,30.3,30.23,SW,230,0.0,0.0,67,0.00,,,0.00,Wunderground v.1.15,2013-02-16 02:56:00,
2013-02-15 19:11:00,39.1,30.1,30.23,SW,230,0.0,0.0,70,0.00,,,0.00,Wunderground v.1.15,2013-02-16 03:11:00,
2013-02-15 19:16:00,38.6,29.7,30.23,SW,230,0.0,0.0,70,0.00,,,0.00,Wunderground v.1.15,2013-02-16 03:16:00,
2013-02-15 19:26:00,37.9,29.0,30.23,SW,230,0.0,0.0,70,0.00,,,0.00,Wunderground v.1.15,2013-02-16 03:26:00,
2013-02-15 19:41:00,36.9,29.4,30.23,SW,230,0.0,0.0,74,0.00,,,0.00,Wunderground v.1.15,2013-02-16 03:41:00,
2013-02-15 19:46:00,36.4,28.9,30.23,SW,230,0.0,0.0,74,0.00,,,0.00,Wunderground v.1.15,2013-02-16 03:46:00,
2013-02-15 19:56:00,35.7,28.6,30.23,SW,230,0.0,0.0,75,0.00,,,0.00,Wunderground v.1.15,2013-02-16 03:56:00,
2013-02-15 20:11:00,34.8,28.3,30.23,SW,230,0.0,0.0,77,0.00,,,0.00,Wunderground v.1.15,2013-02-16 04:11:00,
2013-02-15 20:16:00,34.4,28.2,30.23,SW,230,0.0,0.0,78,0.00,,,0.00,Wunderground v.1.15,2013-02-16 04:16:00,
2013-02-15 20:26:00,33.9,27.4,30.23,SW,230,0.0,0.0,77,0.00,,,0.00,Wunderground v.1.15,2013-02-16 04:26:00,
2013-02-15 20:36:00,33.4,27.6,30.23,SW,230,0.0,0.0,79,0.00,,,0.00,Wunderground v.1.15,2013-02-16 04:36:00,
2013-02-15 20:46:00,32.9,27.1,30.23,SW,230,0.0,0.0,79,0.00,,,0.00,Wunderground v.1.15,2013-02-16 04:46:00,
2013-02-15 20:56:00,32.4,26.9,30.24,SW,230,0.0,0.0,80,0.00,,,0.00,Wunderground v.1.15,2013-02-16 04:56:00,
2013-02-15 21:01:00,32.2,26.7,30.23,SW,230,0.0,0.0,80,0.00,,,0.00,Wunderground v.1.15,2013-02-16 05:01:00,
2013-02-15 21:11:00,31.7,26.2,30.24,SW,230,0.0,0.0,80,0.00,,,0.00,Wunderground v.1.15,2013-02-16 05:11:00,
2013-02-15 21:21:00,31.2,26.3,30.24,SW,230,0.0,0.0,82,0.00,,,0.00,Wunderground v.1.15,2013-02-16 05:21:00,
2013-02-15 21:26:00,30.9,26.1,30.24,SW,230,0.0,0.0,82,0.00,,,0.00,Wunderground v.1.15,2013-02-16 05:26:00,
2013-02-15 21:41:00,30.4,26.1,30.24,SW,230,0.0,0.0,84,0.00,,,0.00,Wunderground v.1.15,2013-02-16 05:41:00,
2013-02-15 21:46:00,30.2,25.9,30.24,SW,230,0.0,0.0,84,0.00,,,0.00,Wunderground v.1.15,2013-02-16 05:46:00,
2013-02-15 21:56:00,29.8,25.6,30.24,SW,230,0.0,0.0,84,0.00,,,0.00,Wunderground v.1.15,2013-02-16 05:56:00,
2013-02-15 22:11:00,29.4,25.2,30.24,SW,230,0.0,0.0,84,0.00,,,0.00,Wunderground v.1.15,2013-02-16 06:11:00,
2013-02-15 22:16:00,29.2,25.3,30.24,SW,230,0.0,0.0,85,0.00,,,0.00,Wunderground v.1.15,2013-02-16 06:16:00,
2013-02-15 22:21:00,29.0,25.1,30.24,SW,230,0.0,0.0,85,0.00,,,0.00,Wunderground v.1.15,2013-02-16 06:21:00,
2013-02-15 22:26:00,28.8,25.1,30.24,SW,230,0.0,0.0,86,0.00,,,0.00,Wunderground v.1.15,2013-02-16 06:26:00,
2013-02-15 22:36:00,28.5,24.8,30.24,SW,230,0.0,0.0,86,0.00,,,0.00,Wunderground v.1.15,2013-02-16 06:36:00,
2013-02-15 22:46:00,28.3,24.6,30.24,SW,230,0.0,0.0,86,0.00,,,0.00,Wunderground v.1.15,2013-02-16 06:46:00,
2013-02-15 22:56:00,28.0,24.6,30.24,SW,230,0.0,0.0,87,0.00,,,0.00,Wunderground v.1.15,2013-02-16 06:56:00,
2013-02-15 23:11:00,27.7,24.6,30.24,SW,230,0.0,0.0,88,0.00,,,0.00,Wunderground v.1.15,2013-02-16 07:11:00,
2013-02-15 23:16:00,27.7,24.6,30.23,SW,230,0.0,0.0,88,0.00,,,0.00,Wunderground v.1.15,2013-02-16 07:16:00,
2013-02-15 23:26:00,27.5,24.4,30.24,SW,230,0.0,0.0,88,0.00,,,0.00,Wunderground v.1.15,2013-02-16 07:26:00,
2013-02-15 23:36:00,27.3,24.5,30.24,SW,230,0.0,0.0,89,0.00,,,0.00,Wunderground v.1.15,2013-02-16 07:36:00,
2013-02-15 23:46:00,27.1,24.3,30.24,SW,230,0.0,0.0,89,0.00,,,0.00,Wunderground v.1.15,2013-02-16 07:46:00,
2013-02-15 23:56:00,27.0,24.5,30.24,SW,230,0.0,0.0,90,0.00,,,0.00,Wunderground v.1.15,2013-02-16 07:56:00,